TimeEDT,TemperatureF,Dew PointF,Humidity,Sea Level PressureIn,VisibilityMPH,Wind Direction,Wind SpeedMPH,Gust SpeedMPH,PrecipitationIn,Events,Conditions,WindDirDegrees,DateUTC
12:54 AM,52.0,46.9,83,30.18,10.0,SW,6.9,-,N/A,,Clear,230,2013-05-07 04:54:00
1:54 AM,51.1,46.9,86,30.17,10.0,SSW,5.8,-,N/A,,Clear,210,2013-05-07 05:54:00
2:54 AM,51.1,46.0,83,30.17,10.0,SW,4.6,-,N/A,,Clear,220,2013-05-07 06:54:00
3:54 AM,48.9,46.0,90,30.17,10.0,South,8.1,-,N/A,,Clear,190,2013-05-07 07:54:00
4:54 AM,48.9,46.0,90,30.17,10.0,South,3.5,-,N/A,,Clear,180,2013-05-07 08:54:00
5:54 AM,48.0,45.0,89,30.18,10.0,South,4.6,-,N/A,,Partly Cloudy,190,2013-05-07 09:54:00
6:54 AM,51.1,46.9,86,30.19,10.0,SSW,4.6,-,N/A,,Partly Cloudy,200,2013-05-07 10:54:00
7:54 AM,55.0,48.9,80,30.19,10.0,SSE,6.9,-,N/A,,Partly Cloudy,160,2013-05-07 11:54:00
8:54 AM,59.0,50.0,72,30.19,10.0,SE,4.6,-,N/A,,Partly Cloudy,140,2013-05-07 12:54:00
9:54 AM,63.0,48.0,58,30.18,10.0,ESE,6.9,-,N/A,,Partly Cloudy,120,2013-05-07 13:54:00
10:54 AM,64.0,48.9,58,30.19,10.0,ESE,10.4,-,N/A,,Scattered Clouds,110,2013-05-07 14:54:00
11:54 AM,64.9,48.9,56,30.18,10.0,ESE,12.7,-,N/A,,Scattered Clouds,110,2013-05-07 15:54:00
12:54 PM,66.0,51.1,59,30.17,10.0,East,15.0,-,N/A,,Scattered Clouds,100,2013-05-07 16:54:00
1:54 PM,66.0,52.0,60,30.15,10.0,East,17.3,-,N/A,,Scattered Clouds,100,2013-05-07 17:54:00
2:54 PM,63.0,55.9,78,30.13,10.0,East,13.8,-,N/A,,Scattered Clouds,90,2013-05-07 18:54:00
3:54 PM,64.0,55.9,75,30.12,10.0,East,18.4,-,N/A,,Scattered Clouds,100,2013-05-07 19:54:00
4:54 PM,62.1,54.0,75,30.11,10.0,East,12.7,-,N/A,,Scattered Clouds,90,2013-05-07 20:54:00
5:54 PM,64.0,55.0,73,30.11,10.0,ENE,5.8,-,N/A,,Mostly Cloudy,60,2013-05-07 21:54:00
6:54 PM,70.0,55.0,59,30.12,10.0,South,12.7,-,N/A,,Scattered Clouds,190,2013-05-07 22:54:00
7:54 PM,66.9,53.1,61,30.14,10.0,South,12.7,-,N/A,,Scattered Clouds,190,2013-05-07 23:54:00
8:54 PM,64.0,54.0,70,30.15,10.0,SSW,9.2,-,N/A,,Scattered Clouds,200,2013-05-08 00:54:00
9:54 PM,64.0,54.0,70,30.17,10.0,SSW,12.7,-,N/A,,Scattered Clouds,200,2013-05-08 01:54:00
10:54 PM,61.0,53.1,75,30.18,10.0,SSW,9.2,-,N/A,,Scattered Clouds,200,2013-05-08 02:54:00
11:54 PM,60.1,53.1,78,30.18,10.0,South,8.1,-,N/A,,Scattered Clouds,190,2013-05-08 03:54:00